sensor_id;sensor_type;location;lat;lon;timestamp;pressure;altitude;pressure_sealevel;temperature;humidity
49367;BME280;35245;52.026;8.540;2023-02-18T00:00:29;51032.50;;;-145.42;88.84
49367;BME280;35245;52.026;8.540;2023-02-18T00:02:56;51052.34;;;-145.42;90.40
49367;BME280;35245;52.026;8.540;2023-02-18T00:05:23;51054.31;;;-145.42;91.58
49367;BME280;35245;52.026;8.540;2023-02-18T00:07:51;51034.50;;;-145.42;91.54
49367;BME280;35245;52.026;8.540;2023-02-18T00:10:19;51028.53;;;-145.42;92.16
49367;BME280;35245;52.026;8.540;2023-02-18T00:12:47;51034.50;;;-145.42;94.14
49367;BME280;35245;52.026;8.540;2023-02-18T00:15:14;51052.34;;;-145.42;95.59
49367;BME280;35245;52.026;8.540;2023-02-18T00:17:41;51046.38;;;-145.42;95.27
49367;BME280;35245;52.026;8.540;2023-02-18T00:20:09;51036.47;;;-145.42;98.36
49367;BME280;35245;52.026;8.540;2023-02-18T00:22:36;51030.53;;;-145.42;98.41
49367;BME280;35245;52.026;8.540;2023-02-18T00:25:04;51050.34;;;-145.42;100.00
49367;BME280;35245;52.026;8.540;2023-02-18T00:27:33;51026.56;;;-145.42;100.00
49367;BME280;35245;52.026;8.540;2023-02-18T00:30:00;51044.41;;;-145.42;100.00
49367;BME280;35245;52.026;8.540;2023-02-18T00:32:28;51030.53;;;-145.42;100.00
49367;BME280;35245;52.026;8.540;2023-02-18T00:34:56;51050.34;;;-145.42;100.00
49367;BME280;35245;52.026;8.540;2023-02-18T00:37:23;51036.47;;;-145.42;100.00
49367;BME280;35245;52.026;8.540;2023-02-18T00:39:50;51050.34;;;-145.42;100.00
49367;BME280;35245;52.026;8.540;2023-02-18T00:42:17;51028.53;;;-145.42;100.00
49367;BME280;35245;52.026;8.540;2023-02-18T00:44:46;51038.47;;;-145.42;100.00
49367;BME280;35245;52.026;8.540;2023-02-18T00:47:13;51046.38;;;-145.42;100.00
49367;BME280;35245;52.026;8.540;2023-02-18T00:49:40;51040.44;;;-145.42;100.00
49367;BME280;35245;52.026;8.540;2023-02-18T00:52:07;51038.47;;;-145.42;100.00
49367;BME280;35245;52.026;8.540;2023-02-18T00:54:34;51042.41;;;-145.42;100.00
49367;BME280;35245;52.026;8.540;2023-02-18T00:57:02;51028.53;;;-145.42;100.00
49367;BME280;35245;52.026;8.540;2023-02-18T00:59:29;51042.41;;;-145.42;100.00
49367;BME280;35245;52.026;8.540;2023-02-18T01:01:57;51030.53;;;-145.42;100.00
49367;BME280;35245;52.026;8.540;2023-02-18T01:04:24;51030.53;;;-145.42;100.00
49367;BME280;35245;52.026;8.540;2023-02-18T01:06:52;51028.53;;;-145.42;100.00
49367;BME280;35245;52.026;8.540;2023-02-18T01:09:19;51036.47;;;-145.42;100.00
49367;BME280;35245;52.026;8.540;2023-02-18T01:11:46;51046.38;;;-145.42;100.00
49367;BME280;35245;52.026;8.540;2023-02-18T01:14:13;51024.59;;;-145.42;100.00
49367;BME280;35245;52.026;8.540;2023-02-18T01:16:40;51040.44;;;-145.42;100.00
49367;BME280;35245;52.026;8.540;2023-02-18T01:19:09;51050.34;;;-145.42;100.00
49367;BME280;35245;52.026;8.540;2023-02-18T01:21:36;51014.66;;;-145.42;100.00
49367;BME280;35245;52.026;8.540;2023-02-18T01:24:04;51014.66;;;-145.42;100.00
49367;BME280;35245;52.026;8.540;2023-02-18T01:26:32;51024.59;;;-145.42;100.00
49367;BME280;35245;52.026;8.540;2023-02-18T01:28:59;51038.47;;;-145.42;100.00
49367;BME280;35245;52.026;8.540;2023-02-18T01:31:26;51036.47;;;-145.42;100.00
49367;BME280;35245;52.026;8.540;2023-02-18T01:33:53;51036.47;;;-145.42;100.00
49367;BME280;35245;52.026;8.540;2023-02-18T01:36:22;51026.56;;;-145.42;100.00
49367;BME280;35245;52.026;8.540;2023-02-18T01:38:49;51052.34;;;-145.42;100.00
49367;BME280;35245;52.026;8.540;2023-02-18T01:41:17;51024.59;;;-145.42;100.00
49367;BME280;35245;52.026;8.540;2023-02-18T01:43:44;51034.50;;;-145.42;100.00
49367;BME280;35245;52.026;8.540;2023-02-18T01:46:17;51060.25;;;-145.42;100.00
49367;BME280;35245;52.026;8.540;2023-02-18T01:48:49;51034.50;;;-145.42;100.00
49367;BME280;35245;52.026;8.540;2023-02-18T01:51:22;51048.38;;;-145.42;100.00
49367;BME280;35245;52.026;8.540;2023-02-18T01:53:56;51074.13;;;-145.42;100.00
49367;BME280;35245;52.026;8.540;2023-02-18T01:56:29;51054.31;;;-145.42;100.00
49367;BME280;35245;52.026;8.540;2023-02-18T01:59:01;51040.44;;;-145.42;100.00
49367;BME280;35245;52.026;8.540;2023-02-18T02:01:30;51022.59;;;-145.42;100.00
49367;BME280;35245;52.026;8.540;2023-02-18T02:03:58;51028.53;;;-145.42;100.00
49367;BME280;35245;52.026;8.540;2023-02-18T02:06:27;51038.47;;;-145.42;100.00
49367;BME280;35245;52.026;8.540;2023-02-18T02:08:57;51038.47;;;-145.42;100.00
49367;BME280;35245;52.026;8.540;2023-02-18T02:11:55;51070.16;;;-145.42;100.00
49367;BME280;35245;52.026;8.540;2023-02-18T02:14:45;51060.25;;;-145.42;100.00
49367;BME280;35245;52.026;8.540;2023-02-18T02:17:26;51050.34;;;-145.42;100.00
49367;BME280;35245;52.026;8.540;2023-02-18T02:20:26;51068.19;;;-145.42;100.00
49367;BME280;35245;52.026;8.540;2023-02-18T02:27:10;51038.47;;;-145.42;100.00
49367;BME280;35245;52.026;8.540;2023-02-18T02:36:37;51091.97;;;-145.42;100.00
49367;BME280;35245;52.026;8.540;2023-02-18T02:39:16;51024.59;;;-145.42;100.00
49367;BME280;35245;52.026;8.540;2023-02-18T02:41:53;51052.34;;;-145.42;100.00
49367;BME280;35245;52.026;8.540;2023-02-18T02:44:30;51034.50;;;-145.42;100.00
49367;BME280;35245;52.026;8.540;2023-02-18T02:47:06;51036.47;;;-145.42;100.00
49367;BME280;35245;52.026;8.540;2023-02-18T02:49:42;51038.47;;;-145.42;100.00
49367;BME280;35245;52.026;8.540;2023-02-18T02:52:21;51050.34;;;-145.42;100.00
49367;BME280;35245;52.026;8.540;2023-02-18T02:54:49;51054.31;;;-145.42;100.00
49367;BME280;35245;52.026;8.540;2023-02-18T02:57:45;51040.44;;;-145.42;100.00
49367;BME280;35245;52.026;8.540;2023-02-18T03:00:15;51026.56;;;-145.42;100.00
49367;BME280;35245;52.026;8.540;2023-02-18T03:03:23;51042.41;;;-145.42;100.00
49367;BME280;35245;52.026;8.540;2023-02-18T03:06:10;51026.56;;;-145.42;100.00
49367;BME280;35245;52.026;8.540;2023-02-18T03:08:54;51046.38;;;-145.42;100.00
49367;BME280;35245;52.026;8.540;2023-02-18T03:11:23;51050.34;;;-145.42;100.00
49367;BME280;35245;52.026;8.540;2023-02-18T03:14:01;51078.09;;;-145.42;100.00
49367;BME280;35245;52.026;8.540;2023-02-18T03:16:37;51068.19;;;-145.42;100.00
49367;BME280;35245;52.026;8.540;2023-02-18T03:19:18;51044.41;;;-145.42;100.00
49367;BME280;35245;52.026;8.540;2023-02-18T03:21:51;51022.59;;;-145.42;100.00
49367;BME280;35245;52.026;8.540;2023-02-18T03:24:24;51068.19;;;-145.42;100.00
49367;BME280;35245;52.026;8.540;2023-02-18T03:26:57;51042.41;;;-145.42;100.00
49367;BME280;35245;52.026;8.540;2023-02-18T03:29:26;51032.50;;;-145.42;100.00
49367;BME280;35245;52.026;8.540;2023-02-18T03:31:59;51046.38;;;-145.42;100.00
49367;BME280;35245;52.026;8.540;2023-02-18T03:34:30;51028.53;;;-145.42;100.00
49367;BME280;35245;52.026;8.540;2023-02-18T03:36:59;51026.56;;;-145.42;100.00
49367;BME280;35245;52.026;8.540;2023-02-18T03:39:31;51056.28;;;-145.42;100.00
49367;BME280;35245;52.026;8.540;2023-02-18T03:41:59;51034.50;;;-145.42;100.00
49367;BME280;35245;52.026;8.540;2023-02-18T03:44:27;51064.22;;;-145.42;100.00
49367;BME280;35245;52.026;8.540;2023-02-18T03:46:56;51050.34;;;-145.42;100.00
49367;BME280;35245;52.026;8.540;2023-02-18T03:49:23;51032.50;;;-145.42;100.00
49367;BME280;35245;52.026;8.540;2023-02-18T03:51:51;51056.28;;;-145.42;100.00
49367;BME280;35245;52.026;8.540;2023-02-18T03:54:18;51050.34;;;-145.42;100.00
49367;BME280;35245;52.026;8.540;2023-02-18T03:56:47;51072.16;;;-145.42;100.00
49367;BME280;35245;52.026;8.540;2023-02-18T03:59:14;51058.28;;;-145.42;100.00
49367;BME280;35245;52.026;8.540;2023-02-18T04:01:41;51044.41;;;-145.42;100.00
49367;BME280;35245;52.026;8.540;2023-02-18T04:04:09;51056.28;;;-145.42;100.00
49367;BME280;35245;52.026;8.540;2023-02-18T04:06:36;51052.34;;;-145.42;100.00
49367;BME280;35245;52.026;8.540;2023-02-18T04:09:04;51026.56;;;-145.42;100.00
49367;BME280;35245;52.026;8.540;2023-02-18T04:11:35;51046.38;;;-145.42;100.00
49367;BME280;35245;52.026;8.540;2023-02-18T04:14:03;51040.44;;;-145.42;100.00
49367;BME280;35245;52.026;8.540;2023-02-18T04:16:31;51060.25;;;-145.42;100.00
49367;BME280;35245;52.026;8.540;2023-02-18T04:18:59;51054.31;;;-145.42;100.00
49367;BME280;35245;52.026;8.540;2023-02-18T04:21:26;51046.38;;;-145.42;100.00
49367;BME280;35245;52.026;8.540;2023-02-18T04:23:53;51062.25;;;-145.42;100.00
49367;BME280;35245;52.026;8.540;2023-02-18T04:26:20;51032.50;;;-145.42;100.00
49367;BME280;35245;52.026;8.540;2023-02-18T04:28:48;51046.38;;;-145.42;100.00
49367;BME280;35245;52.026;8.540;2023-02-18T04:31:16;51052.34;;;-145.42;100.00
49367;BME280;35245;52.026;8.540;2023-02-18T04:33:43;51054.31;;;-145.42;100.00
49367;BME280;35245;52.026;8.540;2023-02-18T04:36:11;51036.47;;;-145.42;100.00
49367;BME280;35245;52.026;8.540;2023-02-18T04:38:38;51032.50;;;-145.42;100.00
49367;BME280;35245;52.026;8.540;2023-02-18T04:41:06;51074.13;;;-145.42;100.00
49367;BME280;35245;52.026;8.540;2023-02-18T04:43:34;51050.34;;;-145.42;100.00
49367;BME280;35245;52.026;8.540;2023-02-18T04:46:01;51056.28;;;-145.42;100.00
49367;BME280;35245;52.026;8.540;2023-02-18T04:48:30;51052.34;;;-145.42;100.00
49367;BME280;35245;52.026;8.540;2023-02-18T04:50:57;51072.16;;;-145.42;100.00
49367;BME280;35245;52.026;8.540;2023-02-18T04:53:24;51072.16;;;-145.42;100.00
49367;BME280;35245;52.026;8.540;2023-02-18T04:55:52;51046.38;;;-145.42;100.00
49367;BME280;35245;52.026;8.540;2023-02-18T04:58:20;51038.47;;;-145.42;100.00
49367;BME280;35245;52.026;8.540;2023-02-18T05:00:47;51050.34;;;-145.42;100.00
49367;BME280;35245;52.026;8.540;2023-02-18T05:03:15;51044.41;;;-145.42;100.00
49367;BME280;35245;52.026;8.540;2023-02-18T05:05:43;51028.53;;;-145.42;100.00
49367;BME280;35245;52.026;8.540;2023-02-18T05:08:11;51038.47;;;-145.42;100.00
49367;BME280;35245;52.026;8.540;2023-02-18T05:10:38;51052.34;;;-145.42;100.00
49367;BME280;35245;52.026;8.540;2023-02-18T05:13:06;51042.41;;;-145.42;100.00
49367;BME280;35245;52.026;8.540;2023-02-18T05:15:33;51024.59;;;-145.42;100.00
49367;BME280;35245;52.026;8.540;2023-02-18T05:18:00;51030.53;;;-145.42;100.00
49367;BME280;35245;52.026;8.540;2023-02-18T05:20:28;51052.34;;;-145.42;100.00
49367;BME280;35245;52.026;8.540;2023-02-18T05:22:56;51050.34;;;-145.42;100.00
49367;BME280;35245;52.026;8.540;2023-02-18T05:25:24;51056.28;;;-145.42;100.00
49367;BME280;35245;52.026;8.540;2023-02-18T05:27:51;51042.41;;;-145.42;100.00
49367;BME280;35245;52.026;8.540;2023-02-18T05:30:18;51038.47;;;-145.42;100.00
49367;BME280;35245;52.026;8.540;2023-02-18T05:32:46;51040.44;;;-145.42;100.00
49367;BME280;35245;52.026;8.540;2023-02-18T05:35:13;51036.47;;;-145.42;100.00
49367;BME280;35245;52.026;8.540;2023-02-18T05:37:40;51042.41;;;-145.42;100.00
49367;BME280;35245;52.026;8.540;2023-02-18T05:40:10;51030.53;;;-145.42;100.00
49367;BME280;35245;52.026;8.540;2023-02-18T05:42:38;51052.34;;;-145.42;100.00
49367;BME280;35245;52.026;8.540;2023-02-18T05:45:06;51048.38;;;-145.42;100.00
49367;BME280;35245;52.026;8.540;2023-02-18T05:47:33;51056.28;;;-145.42;100.00
49367;BME280;35245;52.026;8.540;2023-02-18T05:50:01;51048.38;;;-145.42;100.00
49367;BME280;35245;52.026;8.540;2023-02-18T05:52:28;51058.28;;;-145.42;100.00
49367;BME280;35245;52.026;8.540;2023-02-18T05:54:55;51038.47;;;-145.42;100.00
49367;BME280;35245;52.026;8.540;2023-02-18T05:57:25;51050.34;;;-145.42;100.00
49367;BME280;35245;52.026;8.540;2023-02-18T05:59:52;51048.38;;;-145.42;100.00
49367;BME280;35245;52.026;8.540;2023-02-18T06:02:19;51040.44;;;-145.42;100.00
49367;BME280;35245;52.026;8.540;2023-02-18T06:04:47;51036.47;;;-145.42;100.00
49367;BME280;35245;52.026;8.540;2023-02-18T06:07:14;51042.41;;;-145.42;100.00
49367;BME280;35245;52.026;8.540;2023-02-18T06:09:41;51052.34;;;-145.42;100.00
49367;BME280;35245;52.026;8.540;2023-02-18T06:12:08;51058.28;;;-145.42;100.00
49367;BME280;35245;52.026;8.540;2023-02-18T06:14:37;51034.50;;;-145.42;100.00
49367;BME280;35245;52.026;8.540;2023-02-18T06:17:07;51050.34;;;-145.42;100.00
49367;BME280;35245;52.026;8.540;2023-02-18T06:19:34;51042.41;;;-145.42;100.00
49367;BME280;35245;52.026;8.540;2023-02-18T06:22:01;51018.63;;;-145.42;100.00
49367;BME280;35245;52.026;8.540;2023-02-18T06:24:29;51054.31;;;-145.42;100.00
49367;BME280;35245;52.026;8.540;2023-02-18T06:26:56;51044.41;;;-145.42;100.00
49367;BME280;35245;52.026;8.540;2023-02-18T06:29:24;51054.31;;;-145.42;100.00
49367;BME280;35245;52.026;8.540;2023-02-18T06:31:52;51058.28;;;-145.42;100.00
49367;BME280;35245;52.026;8.540;2023-02-18T06:34:19;51022.59;;;-145.42;100.00
49367;BME280;35245;52.026;8.540;2023-02-18T06:36:47;51060.25;;;-145.42;100.00
49367;BME280;35245;52.026;8.540;2023-02-18T06:39:14;51040.44;;;-145.42;100.00
49367;BME280;35245;52.026;8.540;2023-02-18T06:41:41;51038.47;;;-145.42;100.00
49367;BME280;35245;52.026;8.540;2023-02-18T06:44:09;51036.47;;;-145.42;100.00
49367;BME280;35245;52.026;8.540;2023-02-18T06:46:36;51058.28;;;-145.42;100.00
49367;BME280;35245;52.026;8.540;2023-02-18T06:49:05;51038.47;;;-145.42;100.00
49367;BME280;35245;52.026;8.540;2023-02-18T06:51:32;51040.44;;;-145.42;100.00
49367;BME280;35245;52.026;8.540;2023-02-18T06:53:59;51056.28;;;-145.42;100.00
49367;BME280;35245;52.026;8.540;2023-02-18T06:56:27;51058.28;;;-145.42;100.00
49367;BME280;35245;52.026;8.540;2023-02-18T06:58:54;51042.41;;;-145.42;100.00
49367;BME280;35245;52.026;8.540;2023-02-18T07:01:21;51068.19;;;-145.42;100.00
49367;BME280;35245;52.026;8.540;2023-02-18T07:03:48;51052.34;;;-145.42;100.00
49367;BME280;35245;52.026;8.540;2023-02-18T07:06:17;51034.50;;;-145.42;100.00
49367;BME280;35245;52.026;8.540;2023-02-18T07:08:44;51034.50;;;-145.42;100.00
49367;BME280;35245;52.026;8.540;2023-02-18T07:11:11;51058.28;;;-145.42;100.00
49367;BME280;35245;52.026;8.540;2023-02-18T07:13:38;51044.41;;;-145.42;100.00
49367;BME280;35245;52.026;8.540;2023-02-18T07:16:06;51042.41;;;-145.42;100.00
49367;BME280;35245;52.026;8.540;2023-02-18T07:18:33;51072.16;;;-145.42;100.00
49367;BME280;35245;52.026;8.540;2023-02-18T07:21:00;51068.19;;;-145.42;100.00
49367;BME280;35245;52.026;8.540;2023-02-18T07:23:29;51070.16;;;-145.42;100.00
49367;BME280;35245;52.026;8.540;2023-02-18T07:26:04;51046.38;;;-145.42;100.00
49367;BME280;35245;52.026;8.540;2023-02-18T07:28:31;51046.38;;;-145.42;100.00
49367;BME280;35245;52.026;8.540;2023-02-18T07:30:58;51040.44;;;-145.42;100.00
49367;BME280;35245;52.026;8.540;2023-02-18T07:33:26;51062.25;;;-145.42;100.00
49367;BME280;35245;52.026;8.540;2023-02-18T07:35:53;51064.22;;;-145.42;100.00
49367;BME280;35245;52.026;8.540;2023-02-18T07:38:22;51054.31;;;-145.42;100.00
49367;BME280;35245;52.026;8.540;2023-02-18T07:40:52;51052.34;;;-145.42;100.00
49367;BME280;35245;52.026;8.540;2023-02-18T07:43:20;51074.13;;;-145.42;100.00
49367;BME280;35245;52.026;8.540;2023-02-18T07:45:47;51052.34;;;-145.42;100.00
49367;BME280;35245;52.026;8.540;2023-02-18T07:48:15;51048.38;;;-145.42;100.00
49367;BME280;35245;52.026;8.540;2023-02-18T07:50:44;51046.38;;;-145.42;100.00
49367;BME280;35245;52.026;8.540;2023-02-18T07:53:14;51036.47;;;-145.42;100.00
49367;BME280;35245;52.026;8.540;2023-02-18T07:55:41;51048.38;;;-145.42;100.00
49367;BME280;35245;52.026;8.540;2023-02-18T07:58:19;51052.34;;;-145.42;100.00
49367;BME280;35245;52.026;8.540;2023-02-18T08:00:47;51048.38;;;-145.42;100.00
49367;BME280;35245;52.026;8.540;2023-02-18T08:03:16;51026.56;;;-145.42;100.00
49367;BME280;35245;52.026;8.540;2023-02-18T08:05:44;51050.34;;;-145.42;100.00
49367;BME280;35245;52.026;8.540;2023-02-18T08:08:13;51066.22;;;-145.42;100.00
49367;BME280;35245;52.026;8.540;2023-02-18T08:10:42;51054.31;;;-145.42;100.00
49367;BME280;35245;52.026;8.540;2023-02-18T08:13:09;51052.34;;;-145.42;100.00
49367;BME280;35245;52.026;8.540;2023-02-18T08:15:39;51084.03;;;-145.42;100.00
49367;BME280;35245;52.026;8.540;2023-02-18T08:18:08;51046.38;;;-145.42;100.00
49367;BME280;35245;52.026;8.540;2023-02-18T08:20:40;51038.47;;;-145.42;100.00
49367;BME280;35245;52.026;8.540;2023-02-18T08:23:08;51072.16;;;-145.42;100.00
49367;BME280;35245;52.026;8.540;2023-02-18T08:25:36;51032.50;;;-145.42;100.00
49367;BME280;35245;52.026;8.540;2023-02-18T08:28:04;51038.47;;;-145.42;100.00
49367;BME280;35245;52.026;8.540;2023-02-18T08:30:31;51036.47;;;-145.42;100.00
49367;BME280;35245;52.026;8.540;2023-02-18T08:33:00;51060.25;;;-145.42;100.00
49367;BME280;35245;52.026;8.540;2023-02-18T08:35:27;51038.47;;;-145.42;100.00
49367;BME280;35245;52.026;8.540;2023-02-18T08:37:54;51030.53;;;-145.42;100.00
49367;BME280;35245;52.026;8.540;2023-02-18T08:40:22;51050.34;;;-145.42;100.00
49367;BME280;35245;52.026;8.540;2023-02-18T08:42:49;51046.38;;;-145.42;100.00
49367;BME280;35245;52.026;8.540;2023-02-18T08:45:16;51038.47;;;-145.42;100.00
49367;BME280;35245;52.026;8.540;2023-02-18T08:47:44;51058.28;;;-145.42;100.00
49367;BME280;35245;52.026;8.540;2023-02-18T08:50:12;51050.34;;;-145.42;100.00
49367;BME280;35245;52.026;8.540;2023-02-18T08:52:40;51034.50;;;-145.42;100.00
49367;BME280;35245;52.026;8.540;2023-02-18T08:55:07;51038.47;;;-145.42;100.00
49367;BME280;35245;52.026;8.540;2023-02-18T08:57:35;51062.25;;;-145.42;100.00
49367;BME280;35245;52.026;8.540;2023-02-18T09:00:03;51042.41;;;-145.42;100.00
49367;BME280;35245;52.026;8.540;2023-02-18T09:02:30;51032.50;;;-145.42;100.00
49367;BME280;35245;52.026;8.540;2023-02-18T09:04:58;51054.31;;;-145.42;100.00
49367;BME280;35245;52.026;8.540;2023-02-18T09:07:27;51038.47;;;-145.42;100.00
49367;BME280;35245;52.026;8.540;2023-02-18T09:09:54;51046.38;;;-145.42;100.00
49367;BME280;35245;52.026;8.540;2023-02-18T09:12:21;51042.41;;;-145.42;100.00
49367;BME280;35245;52.026;8.540;2023-02-18T09:14:48;51034.50;;;-145.42;100.00
49367;BME280;35245;52.026;8.540;2023-02-18T09:17:15;51042.41;;;-145.42;100.00
49367;BME280;35245;52.026;8.540;2023-02-18T09:19:43;51012.69;;;-145.42;100.00
49367;BME280;35245;52.026;8.540;2023-02-18T09:22:10;51026.56;;;-145.42;100.00
49367;BME280;35245;52.026;8.540;2023-02-18T09:24:40;51030.53;;;-145.42;100.00
49367;BME280;35245;52.026;8.540;2023-02-18T09:27:08;51046.38;;;-145.42;100.00
49367;BME280;35245;52.026;8.540;2023-02-18T09:29:38;51010.72;;;-145.42;100.00
49367;BME280;35245;52.026;8.540;2023-02-18T09:32:06;51022.59;;;-145.42;100.00
49367;BME280;35245;52.026;8.540;2023-02-18T09:34:35;51032.50;;;-145.42;100.00
49367;BME280;35245;52.026;8.540;2023-02-18T09:37:03;51044.41;;;-145.42;100.00
49367;BME280;35245;52.026;8.540;2023-02-18T09:39:30;51040.44;;;-145.42;100.00
49367;BME280;35245;52.026;8.540;2023-02-18T09:42:01;51022.59;;;-145.42;100.00
49367;BME280;35245;52.026;8.540;2023-02-18T09:44:34;51032.50;;;-145.42;100.00
49367;BME280;35245;52.026;8.540;2023-02-18T09:47:06;51024.59;;;-145.42;100.00
49367;BME280;35245;52.026;8.540;2023-02-18T09:49:40;51036.47;;;-145.42;100.00
49367;BME280;35245;52.026;8.540;2023-02-18T09:52:13;51032.50;;;-145.42;100.00
49367;BME280;35245;52.026;8.540;2023-02-18T09:54:43;51050.34;;;-145.42;100.00
49367;BME280;35245;52.026;8.540;2023-02-18T09:57:23;51026.56;;;-145.42;100.00
49367;BME280;35245;52.026;8.540;2023-02-18T09:59:57;51060.25;;;-145.42;100.00
49367;BME280;35245;52.026;8.540;2023-02-18T10:02:27;51038.47;;;-145.42;100.00
49367;BME280;35245;52.026;8.540;2023-02-18T10:04:55;51002.78;;;-145.42;100.00
49367;BME280;35245;52.026;8.540;2023-02-18T10:07:27;51046.38;;;-145.42;100.00
49367;BME280;35245;52.026;8.540;2023-02-18T10:10:00;51042.41;;;-145.42;100.00
49367;BME280;35245;52.026;8.540;2023-02-18T10:12:31;51038.47;;;-145.42;100.00
49367;BME280;35245;52.026;8.540;2023-02-18T10:15:00;51006.75;;;-145.42;100.00
49367;BME280;35245;52.026;8.540;2023-02-18T10:17:31;50975.03;;;-145.42;100.00
49367;BME280;35245;52.026;8.540;2023-02-18T10:19:59;51010.72;;;-145.42;100.00
49367;BME280;35245;52.026;8.540;2023-02-18T10:22:29;51014.66;;;-145.42;100.00
49367;BME280;35245;52.026;8.540;2023-02-18T10:24:58;51038.47;;;-145.42;100.00
49367;BME280;35245;52.026;8.540;2023-02-18T10:27:36;51010.72;;;-145.42;100.00
49367;BME280;35245;52.026;8.540;2023-02-18T10:30:21;51036.47;;;-145.42;100.00
49367;BME280;35245;52.026;8.540;2023-02-18T10:32:54;51006.75;;;-145.42;100.00
49367;BME280;35245;52.026;8.540;2023-02-18T10:35:26;51012.69;;;-145.42;100.00
49367;BME280;35245;52.026;8.540;2023-02-18T10:38:05;51014.66;;;-145.42;100.00
49367;BME280;35245;52.026;8.540;2023-02-18T10:40:48;51006.75;;;-145.42;100.00
49367;BME280;35245;52.026;8.540;2023-02-18T10:43:25;50994.84;;;-145.42;100.00
49367;BME280;35245;52.026;8.540;2023-02-18T10:46:02;51046.38;;;-145.42;100.00
49367;BME280;35245;52.026;8.540;2023-02-18T10:49:03;51022.59;;;-145.42;100.00
49367;BME280;35245;52.026;8.540;2023-02-18T10:51:38;51016.66;;;-145.42;100.00
49367;BME280;35245;52.026;8.540;2023-02-18T10:54:08;51006.75;;;-145.42;100.00
49367;BME280;35245;52.026;8.540;2023-02-18T10:56:39;51040.44;;;-145.42;100.00
49367;BME280;35245;52.026;8.540;2023-02-18T10:59:18;51020.63;;;-145.42;100.00
49367;BME280;35245;52.026;8.540;2023-02-18T11:01:54;51030.53;;;-145.42;100.00
49367;BME280;35245;52.026;8.540;2023-02-18T11:04:27;51006.75;;;-145.42;100.00
49367;BME280;35245;52.026;8.540;2023-02-18T11:07:04;50998.81;;;-145.42;100.00
49367;BME280;35245;52.026;8.540;2023-02-18T11:09:40;51006.75;;;-145.42;100.00
49367;BME280;35245;52.026;8.540;2023-02-18T11:12:16;-2604.16;;;-145.42;100.00
49367;BME280;35245;52.026;8.540;2023-02-18T11:14:48;8924.97;;;-145.42;100.00
49367;BME280;35245;52.026;8.540;2023-02-18T11:17:20;50875.91;;;-145.42;100.00
49367;BME280;35245;52.026;8.540;2023-02-18T11:19:56;50420.06;;;-145.42;100.00
49367;BME280;35245;52.026;8.540;2023-02-18T11:22:27;50895.75;;;-145.42;100.00
49367;BME280;35245;52.026;8.540;2023-02-18T11:24:56;50949.25;;;-145.42;100.00
49367;BME280;35245;52.026;8.540;2023-02-18T11:27:30;50945.28;;;-145.42;100.00
49367;BME280;35245;52.026;8.540;2023-02-18T11:30:04;23258.84;;;-145.42;100.00
49367;BME280;35245;52.026;8.540;2023-02-18T11:32:34;-6856.19;;;-145.42;100.00
49367;BME280;35245;52.026;8.540;2023-02-18T11:35:03;42356.00;;;-145.42;100.00
49367;BME280;35245;52.026;8.540;2023-02-18T11:37:32;50798.63;;;-145.42;100.00
49367;BME280;35245;52.026;8.540;2023-02-18T11:40:01;48165.28;;;-145.42;100.00
49367;BME280;35245;52.026;8.540;2023-02-18T11:42:28;50364.56;;;-145.42;100.00
49367;BME280;35245;52.026;8.540;2023-02-18T11:44:57;50852.13;;;-145.42;100.00
49367;BME280;35245;52.026;8.540;2023-02-18T11:47:31;50927.44;;;-145.42;100.00
49367;BME280;35245;52.026;8.540;2023-02-18T11:50:16;50850.16;;;-145.42;100.00
49367;BME280;35245;52.026;8.540;2023-02-18T11:52:49;50897.72;;;-145.42;100.00
49367;BME280;35245;52.026;8.540;2023-02-18T11:55:19;50856.09;;;-145.42;100.00
49367;BME280;35245;52.026;8.540;2023-02-18T11:57:50;50907.63;;;-145.42;100.00
49367;BME280;35245;52.026;8.540;2023-02-18T12:00:36;50943.31;;;-145.42;100.00
49367;BME280;35245;52.026;8.540;2023-02-18T12:03:22;50957.19;;;-145.42;100.00
49367;BME280;35245;52.026;8.540;2023-02-18T12:05:54;50984.94;;;-145.42;100.00
49367;BME280;35245;52.026;8.540;2023-02-18T12:08:26;51000.78;;;-145.42;100.00
49367;BME280;35245;52.026;8.540;2023-02-18T12:10:59;51012.69;;;-145.42;100.00
49367;BME280;35245;52.026;8.540;2023-02-18T12:13:32;50990.88;;;-145.42;100.00
49367;BME280;35245;52.026;8.540;2023-02-18T12:16:09;50990.88;;;-145.42;100.00
49367;BME280;35245;52.026;8.540;2023-02-18T12:19:03;51000.78;;;-145.42;100.00
49367;BME280;35245;52.026;8.540;2023-02-18T12:21:46;51018.63;;;-145.42;100.00
49367;BME280;35245;52.026;8.540;2023-02-18T12:24:34;51008.72;;;-145.42;100.00
49367;BME280;35245;52.026;8.540;2023-02-18T12:27:15;50988.91;;;-145.42;100.00
49367;BME280;35245;52.026;8.540;2023-02-18T12:30:21;50982.97;;;-145.42;100.00
49367;BME280;35245;52.026;8.540;2023-02-18T12:32:55;51002.78;;;-145.42;100.00
49367;BME280;35245;52.026;8.540;2023-02-18T12:35:46;50994.84;;;-145.42;100.00
49367;BME280;35245;52.026;8.540;2023-02-18T12:39:10;51004.75;;;-145.42;100.00
49367;BME280;35245;52.026;8.540;2023-02-18T12:41:52;51012.69;;;-145.42;100.00
49367;BME280;35245;52.026;8.540;2023-02-18T12:44:37;50990.88;;;-145.42;100.00
49367;BME280;35245;52.026;8.540;2023-02-18T12:47:45;51008.72;;;-145.42;100.00
49367;BME280;35245;52.026;8.540;2023-02-18T12:50:45;51006.75;;;-145.42;100.00
49367;BME280;35245;52.026;8.540;2023-02-18T12:56:47;51018.63;;;-145.42;100.00
49367;BME280;35245;52.026;8.540;2023-02-18T13:03:08;51014.66;;;-145.42;100.00
49367;BME280;35245;52.026;8.540;2023-02-18T13:05:43;51014.66;;;-145.42;100.00
49367;BME280;35245;52.026;8.540;2023-02-18T13:08:30;51010.72;;;-145.42;100.00